Latest Coastal Weather Observations for Neptune Island

IDS60701

Issued at 7:05 am CST Friday 1 August 2014 (issued every 10 minutes, with the page automatically refreshed every 10 minutes)

About coastal observations | Map of coastal stations | Coastal observations for SA | Marine services | Other Formats
Station Details ID: 018115 Name: NEPTUNE ISLAND Lat: -35.34 Lon: 136.12 Height: 32.0 m
Data from the previous 72 hours. | See also: Recent months at Neptune Island
Date/Time
CST
Temp

°C
Wind Pressure Rain
since 9am
mm
Weather Cloud Vis
km
Sea
Height
m
Swell
Dir
 
Speed
knots
Gust
knots
hPa Trend Height
m
Period
s
Dir
01/07:00am 11.5 SW 37 45 1015.0 - - - - - - - - -
01/06:50am 11.3 SW 37 47 1015.0 - - - - - - - - -
01/06:30am 11.3 SW 37 45 1014.4 - - - - - - - - -
01/06:01am 11.3 SW 38 48 1014.1 - - - - - - - - -
01/06:00am 11.2 SW 39 48 1014.1 - - - - - - - - -
01/05:30am 11.1 SW 38 50 1013.1 - - - - - - - - -
01/05:21am 11.0 SW 40 50 1012.7 - - - - - - - - -
01/05:00am 11.2 SW 40 49 1012.6 - - - - - - - - -
01/04:38am 10.8 SW 39 49 1012.0 - - - - - - - - -
01/04:30am 11.0 SW 39 46 1012.1 - - - - - - - - -
01/04:00am 10.7 SW 39 50 1011.6 - - - - - - - - -
01/03:34am 10.5 SW 42 52 1011.2 - - - - - - - - -
01/03:30am 11.3 - - - 1011.2 - - - - - - - - -
01/03:07am 11.1 WSW 41 55 1010.6 - 4.2 - - - - - - -
01/03:00am 11.4 WSW 40 48 1010.7 - 4.2 - - - - - - -
01/02:30am 10.9 WSW 39 51 1010.5 - 4.2 - - - - - - -
01/02:00am 10.8 WSW 39 49 1010.6 - 4.2 - - - - - - -
01/01:30am 10.6 SW 39 50 1010.2 - 4.0 - - - - - - -
01/01:10am 9.8 SW 37 47 1010.4 - 4.0 - - - - - - -
01/01:00am 9.2 SW 40 49 1010.8 - 4.0 - - - - - - -
01/12:53am 9.1 SW 39 49 1010.5 - 4.0 - - - - - - -
01/12:52am 9.7 SW 38 43 1010.5 - 4.0 - - - - - - -
01/12:46am 9.6 SW 51 62 1009.8 - 3.8 - - - - - - -
01/12:45am 10.0 SW 40 62 1009.8 - 3.8 - - - - - - -
01/12:41am 11.0 SW 35 46 1010.0 - 3.6 - - - - - - -
01/12:30am 10.4 SW 34 43 1010.1 - 3.6 - - - - - - -
01/12:09am 9.7 SW 40 50 1010.3 - 3.6 - - - - - - -
01/12:04am 9.3 SW 43 50 1010.1 - 3.6 - - - - - - -
01/12:01am 10.2 SW 33 43 1010.3 - 3.4 - - - - - - -
01/12:00am 10.1 SW 33 41 1010.4 - 3.4 Recent precip. - - - - - -
 
Date/Time
CST
Temp

°C
Wind Pressure Rain
since 9am
mm
Weather Cloud Vis
km
Sea
Height
m
Swell
Dir
 
Speed
knots
Gust
knots
hPa Trend Height
m
Period
s
Dir
31/11:46pm 9.9 SW 38 48 1010.3 - 3.4 - - - - - - -
31/11:43pm 10.1 SW 37 44 1010.3 - 3.4 - - - - - - -
31/11:34pm 11.2 WSW 33 43 1010.2 - 3.4 - - - - - - -
31/11:30pm 10.8 WSW 35 43 1010.0 - 3.4 - - - - - - -
31/11:00pm 10.3 WSW 34 52 1010.2 - 3.2 - - - - - - -
31/10:30pm 10.2 SW 33 41 1010.2 - 3.2 - - - - - - -
31/10:11pm 11.2 WSW 36 47 1009.5 - 2.8 - - - - - - -
31/10:00pm 11.2 WSW 34 43 1009.9 - 2.8 - - - - - - -
31/09:57pm 11.1 W 32 43 1009.7 - 2.8 - - - - - - -
31/09:44pm 10.9 W 26 31 1010.0 - 2.8 - - - - - - -
31/09:30pm 10.7 WSW 37 48 1009.9 - 2.8 - - - - - - -
31/09:23pm 10.7 WSW 38 48 1009.4 - 2.8 - - - - - - -
31/09:00pm 10.9 WSW 37 45 1009.4 - 2.8 - - - - - - -
31/08:51pm 10.9 WSW 37 47 1009.3 - 2.8 - - - - - - -
31/08:30pm 10.6 WSW 40 47 1009.4 - 2.8 - - - - - - -
31/08:00pm 10.6 W 38 50 1008.8 - 2.8 - - - - - - -
31/07:40pm 10.9 WSW 36 49 1008.7 - 2.8 - - - - - - -
31/07:30pm 11.4 WSW 37 45 1008.8 - 2.8 - - - - - - -
31/07:12pm 11.4 WSW 35 45 1008.6 - 2.8 - - - - - - -
31/07:00pm 11.4 WSW 33 40 1008.5 - 2.8 - - - - - - -
31/06:30pm 10.5 WSW 33 43 1008.4 - 2.8 - - - - - - -
31/06:12pm 9.9 WSW 35 50 1007.9 - 2.8 - - - - - - -
31/06:00pm 10.3 WSW 35 43 1007.8 - 2.8 Recent precip. - - - - - -
31/05:46pm 10.8 WSW 35 49 1007.6 - 2.6 - - - - - - -
31/05:30pm 10.6 WSW 37 44 1007.5 - 2.6 - - - - - - -
31/05:00pm 10.2 WSW 38 45 1007.1 - 2.6 - - - - - - -
31/04:30pm 10.4 WSW 35 45 1006.4 - 1.8 - - - - - - -
31/04:04pm 11.5 WSW 35 45 1006.2 - 1.8 - - - - - - -
31/04:00pm 11.5 WSW 36 45 1005.9 - 1.8 - - - - - - -
31/03:35pm 11.1 WSW 35 45 1005.8 - 1.8 - - - - - - -
31/03:30pm 10.7 WSW 37 45 1005.9 - 1.8 - - - - - - -
31/03:05pm 9.7 SW 43 53 1005.6 - 1.8 - - - - - - -
31/03:00pm 9.3 SW 45 53 1005.3 - 1.8 Recent precip. - - - - - -
31/02:56pm 9.6 SW 47 53 1004.7 - 1.8 - - - - - - -
31/02:30pm 10.7 SW 37 48 1004.9 - 1.8 - - - - - - -
31/02:10pm 10.3 WSW 37 47 1004.1 - 1.4 - - - - - - -
31/02:00pm 11.6 WSW 35 41 1004.1 - 1.2 - - - - - - -
31/01:30pm 11.6 WSW 39 49 1003.2 - 1.2 - - - - - - -
31/01:00pm 11.3 WSW 38 49 1003.2 - 1.0 - - - - - - -
31/12:30pm 11.6 WSW 43 53 1002.8 - 1.0 - - - - - - -
31/12:20pm 11.5 WSW 50 60 1002.7 - 1.0 - - - - - - -
31/12:14pm 12.0 WSW 51 56 1002.2 - 1.0 - - - - - - -
31/12:00pm 13.1 W 38 49 1002.5 - 1.0 Recent precip. - - - - - -
31/11:30am 11.6 W 37 47 1003.2 - 1.0 - - - - - - -
31/11:07am 12.3 WSW 37 47 1003.8 - 0.8 - - - - - - -
31/11:00am 11.7 WSW 40 47 1003.2 - 0.8 - - - - - - -
31/10:30am 11.2 WSW 39 47 1003.2 - 0.8 - - - - - - -
31/10:07am 12.1 WSW 33 43 1003.2 - 0.6 - - - - - - -
31/10:00am 12.0 WSW 31 37 1003.4 - 0.6 - - - - - - -
31/09:30am 11.6 SW 34 40 1003.1 - 0.4 - - - - - - -
31/09:09am 11.8 WSW 36 46 1002.6 - 0.2 - - - - - - -
31/09:00am 12.3 WSW 34 41 1002.5 - - Recent precip. - - - - - -
31/08:30am 12.5 WSW 32 38 1001.8 - - - - - - - - -
31/08:27am 12.6 WSW 32 38 1001.8 - - - - - - - - -
31/08:23am 13.5 WNW 37 55 1001.0 - - - - - - - - -
31/08:00am 15.6 WNW 37 46 1001.0 - - - - - - - - -
31/07:42am 15.5 NW 35 45 1000.9 - - - - - - - - -
31/07:30am 15.4 WNW 34 42 1001.2 - - - - - - - - -
31/07:08am 15.4 WNW 35 46 1001.4 - - - - - - - - -
31/07:00am 15.3 WNW 34 43 1001.7 - - - - - - - - -
31/06:30am 15.4 WNW 34 44 1001.8 - - - - - - - - -
31/06:20am 15.3 WNW 35 45 1001.6 - - - - - - - - -
31/06:00am 15.3 WNW 37 44 1002.4 - - - - - - - - -
31/05:39am 15.3 WNW 34 44 1002.5 - - - - - - - - -
31/05:30am 15.3 WNW 36 44 1002.2 - - - - - - - - -
31/05:19am 15.3 WNW 35 45 1002.4 - - - - - - - - -
31/05:00am 15.2 WNW 37 45 1002.7 - - - - - - - - -
31/04:43am 15.2 WNW 31 41 1003.1 - - - - - - - - -
31/04:42am 15.3 WNW 30 35 1003.1 - - - - - - - - -
31/04:30am 15.3 WNW 40 51 1002.8 - - - - - - - - -
31/04:09am 15.4 WNW 38 49 1003.1 - - - - - - - - -
31/04:00am 15.4 WNW 37 46 1003.4 - - - - - - - - -
31/03:33am 15.4 WNW 37 47 1003.8 - - - - - - - - -
31/03:30am 15.4 - - - 1003.8 - - - - - - - - -
31/03:00am 15.5 WNW 39 49 1004.0 - 0.2 - - - - - - -
31/02:30am 15.3 WNW 37 48 1004.6 - 0.2 - - - - - - -
31/02:09am 15.4 WNW 33 43 1005.1 - 0.2 - - - - - - -
31/02:00am 15.4 WNW 33 41 1005.2 - 0.2 - - - - - - -
31/01:30am 15.3 WNW 31 40 1005.4 - 0.2 - - - - - - -
31/01:00am 15.4 WNW 33 40 1005.9 - 0.2 - - - - - - -
31/12:30am 15.4 WNW 30 40 1006.6 - 0.2 - - - - - - -
31/12:00am 15.7 WNW 30 40 1007.1 - 0.2 - - - - - - -
 
Date/Time
CST
Temp

°C
Wind Pressure Rain
since 9am
mm
Weather Cloud Vis
km
Sea
Height
m
Swell
Dir
 
Speed
knots
Gust
knots
hPa Trend Height
m
Period
s
Dir
30/11:52pm 15.5 WNW 29 40 1007.3 - 0.2 - - - - - - -
30/11:30pm 15.5 WNW 29 35 1007.7 - 0.2 - - - - - - -
30/11:00pm 15.5 WNW 25 30 1008.3 - 0.2 - - - - - - -
30/10:30pm 15.3 NW 27 32 1008.7 - 0.2 - - - - - - -
30/10:00pm 15.3 WNW 25 37 1009.1 - 0.2 - - - - - - -
30/09:55pm 15.2 WNW 24 36 1009.5 - 0.2 - - - - - - -
30/09:30pm 15.5 NW 29 33 1009.5 - 0.0 - - - - - - -
30/09:00pm 15.5 NW 28 35 1010.0 - 0.0 - - - - - - -
30/08:30pm 15.5 NW 29 34 1010.2 - 0.0 - - - - - - -
30/08:00pm 15.4 NW 29 37 1010.6 - 0.0 - - - - - - -
30/07:30pm 15.5 NW 30 35 1010.8 - 0.0 - - - - - - -
30/07:00pm 15.6 NW 28 33 1011.1 - 0.0 - - - - - - -
30/06:30pm 15.6 NW 25 31 1011.3 - 0.0 - - - - - - -
30/06:15pm 15.5 NW 23 34 1011.0 - 0.0 - - - - - - -
30/06:00pm 15.7 NW 26 33 1011.2 - 0.0 - - - - - - -
30/05:30pm 15.6 NW 27 33 1011.1 - 0.0 - - - - - - -
30/05:00pm 15.6 NW 26 32 1011.2 - 0.0 - - - - - - -
30/04:30pm 15.8 NW 30 36 1011.2 - 0.0 - - - - - - -
30/04:00pm 16.1 NW 28 34 1011.4 - 0.0 - - - - - - -
30/03:30pm 16.3 NW 28 34 1011.4 - 0.0 - - - - - - -
30/03:00pm 16.1 NW 28 33 1011.7 - 0.0 - - - - - - -
30/02:30pm 16.6 NW 28 34 1012.0 - 0.0 - - - - - - -
30/02:00pm 16.5 NW 28 34 1012.4 - 0.0 - - - - - - -
30/01:30pm 16.7 WNW 26 31 1012.9 - 0.0 - - - - - - -
30/01:00pm 16.8 NW 26 32 1013.2 - 0.0 - - - - - - -
30/12:30pm 16.8 NW 23 29 1013.9 - 0.0 - - - - - - -
30/12:00pm 16.9 NW 23 28 1014.6 - 0.0 - - - - - - -
30/11:30am 16.9 WNW 22 26 1015.2 - 0.0 - - - - - - -
30/11:00am 16.6 WNW 22 28 1015.6 - 0.0 - - - - - - -
30/10:30am 16.2 W 25 32 1015.9 - 0.0 - - - - - - -
30/10:00am 16.1 W 24 29 1016.1 - 0.0 - - - - - - -
30/09:30am 15.7 W 27 32 1016.0 - 0.0 - - - - - - -
30/09:00am 15.7 W 28 40 1016.0 - - - - - - - - -
30/08:54am 15.7 W 30 40 1015.9 - - - - - - - - -
30/08:30am 15.6 W 28 35 1016.0 - - - - - - - - -
30/08:00am 15.5 W 29 35 1015.8 - - - - - - - - -
30/07:30am 15.7 W 25 30 1015.6 - - - - - - - - -
30/07:00am 15.7 W 28 33 1015.6 - - - - - - - - -
30/06:30am 15.6 WNW 22 28 1015.4 - - - - - - - - -
30/06:00am 15.5 W 23 27 1015.3 - - - - - - - - -
30/05:30am 15.5 W 25 31 1015.0 - - - - - - - - -
30/05:00am 15.5 W 27 32 1015.0 - - - - - - - - -
30/04:30am 15.5 W 24 30 1014.9 - - - - - - - - -
30/04:00am 15.4 W 26 32 1015.0 - - - - - - - - -
30/03:30am 15.5 - - - 1015.3 - - - - - - - - -
30/03:00am 15.8 W 25 30 1015.3 - 0.6 - - - - - - -
30/02:30am 15.8 W 24 31 1015.6 - 0.6 - - - - - - -
30/02:00am 15.8 W 25 29 1016.0 - 0.6 - - - - - - -
30/01:30am 15.8 W 25 31 1016.2 - 0.6 - - - - - - -
30/01:00am 15.8 W 25 30 1016.1 - 0.6 - - - - - - -
30/12:30am 15.9 W 25 31 1016.2 - 0.6 - - - - - - -
30/12:00am 15.7 W 23 27 1016.6 - 0.6 - - - - - - -
 
Date/Time
CST
Temp

°C
Wind Pressure Rain
since 9am
mm
Weather Cloud Vis
km
Sea
Height
m
Swell
Dir
 
Speed
knots
Gust
knots
hPa Trend Height
m
Period
s
Dir
29/11:30pm 15.6 W 23 27 1016.6 - 0.6 - - - - - - -
29/11:00pm 15.6 W 26 31 1016.6 - 0.6 - - - - - - -
29/10:30pm 15.6 W 26 32 1016.6 - 0.6 - - - - - - -
29/10:00pm 15.7 W 27 32 1016.8 - 0.6 - - - - - - -
29/09:30pm 15.8 W 26 31 1016.7 - 0.6 - - - - - - -
29/09:00pm 15.8 W 26 31 1016.3 - 0.6 - - - - - - -
29/08:30pm 15.7 W 25 29 1015.9 - 0.6 - - - - - - -
29/08:00pm 15.7 W 24 31 1016.1 - 0.6 - - - - - - -
29/07:30pm 15.6 W 26 33 1015.6 - 0.6 - - - - - - -
29/07:00pm 14.5 W 29 38 1015.2 - 0.4 - - - - - - -
29/06:57pm 14.5 W 27 38 1015.1 - 0.4 - - - - - - -
29/06:30pm 15.9 W 27 34 1015.0 - 0.4 - - - - - - -
29/06:00pm 16.0 W 30 36 1014.9 - 0.4 - - - - - - -
29/05:30pm 15.9 W 30 37 1014.3 - 0.4 - - - - - - -
29/05:00pm 16.0 W 29 35 1014.2 - 0.4 - - - - - - -
29/04:30pm 16.0 W 28 34 1014.0 - 0.4 - - - - - - -
29/04:00pm 15.9 W 30 39 1013.7 - 0.4 - - - - - - -
29/03:59pm 15.9 W 29 39 1013.7 - 0.4 - - - - - - -
29/03:30pm 15.6 W 28 35 1013.3 - 0.4 - - - - - - -
29/03:07pm 14.9 W 30 34 1013.3 - 0.4 - - - - - - -
29/03:00pm 15.0 W 41 47 1012.8 - 0.2 Rain - - - - - -
29/02:56pm 14.9 W 42 47 1012.9 - 0.2 - - - - - - -
29/02:54pm 15.5 W 30 40 1013.0 - 0.0 - - - - - - -
29/02:30pm 15.6 W 32 39 1013.2 - 0.0 - - - - - - -
29/02:00pm 16.4 W 30 38 1013.3 - 0.0 - - - - - - -
29/01:30pm 16.7 WNW 30 38 1013.2 - 0.0 - - - - - - -
29/01:00pm 16.5 W 33 40 1013.4 - 0.0 - - - - - - -
29/12:46pm 16.4 W 31 43 1013.1 - 0.0 - - - - - - -
29/12:30pm 16.5 W 31 39 1013.3 - 0.0 - - - - - - -
29/12:00pm 16.3 W 32 42 1013.6 - 0.0 - - - - - - -
29/11:58am 16.3 W 32 42 1013.7 - 0.0 - - - - - - -
29/11:30am 16.6 W 30 37 1014.0 - 0.0 - - - - - - -
29/11:00am 16.3 W 28 34 1014.0 - 0.0 - - - - - - -
29/10:30am 16.4 W 34 42 1013.7 - 0.0 - - - - - - -
29/10:21am 16.5 WNW 29 41 1013.5 - 0.0 - - - - - - -
29/10:00am 16.2 W 29 36 1013.8 - 0.0 - - - - - - -
29/09:30am 15.9 W 31 37 1013.7 - 0.0 - - - - - - -
29/09:00am 15.9 W 31 39 1013.4 - - - - - - - - -
29/08:30am 15.6 W 31 42 1013.4 - - - - - - - - -
29/08:02am 14.3 W 35 45 1012.7 - - - - - - - - -
29/08:00am 14.0 W 34 43 1012.8 - - - - - - - - -
29/07:32am 15.3 W 32 42 1012.6 - - - - - - - - -
29/07:30am 15.4 W 31 39 1012.6 - - - - - - - - -

Other Formats:

Comma delimited format used in spreadsheet applications
http://www.bom.gov.au/fwo/IDS60701/IDS60701.94804.axf

JavaScript Object Notation format (JSON) in row-major order
http://www.bom.gov.au/fwo/IDS60701/IDS60701.94804.json